sensor_id;sensor_type;location;lat;lon;timestamp;P1;durP1;ratioP1;P2;durP2;ratioP2
38465;SDS011;24244;51.950;5.902;2023-07-29T00:02:13;7.32;;;3.72;;
38465;SDS011;24244;51.950;5.902;2023-07-29T00:04:40;5.65;;;3.20;;
38465;SDS011;24244;51.950;5.902;2023-07-29T00:07:07;6.38;;;3.33;;
38465;SDS011;24244;51.950;5.902;2023-07-29T00:09:35;7.20;;;3.60;;
38465;SDS011;24244;51.950;5.902;2023-07-29T00:12:03;6.22;;;3.72;;
38465;SDS011;24244;51.950;5.902;2023-07-29T00:14:30;7.20;;;3.90;;
38465;SDS011;24244;51.950;5.902;2023-07-29T00:16:57;5.05;;;3.15;;
38465;SDS011;24244;51.950;5.902;2023-07-29T00:19:24;5.32;;;3.33;;
38465;SDS011;24244;51.950;5.902;2023-07-29T00:21:51;6.20;;;3.80;;
38465;SDS011;24244;51.950;5.902;2023-07-29T00:24:17;4.63;;;2.92;;
38465;SDS011;24244;51.950;5.902;2023-07-29T00:26:45;5.22;;;3.10;;
38465;SDS011;24244;51.950;5.902;2023-07-29T00:29:12;5.45;;;3.15;;
38465;SDS011;24244;51.950;5.902;2023-07-29T00:31:39;5.50;;;3.50;;
38465;SDS011;24244;51.950;5.902;2023-07-29T00:34:06;5.90;;;2.97;;
38465;SDS011;24244;51.950;5.902;2023-07-29T00:36:33;7.28;;;3.85;;
38465;SDS011;24244;51.950;5.902;2023-07-29T00:39:01;5.55;;;3.00;;
38465;SDS011;24244;51.950;5.902;2023-07-29T00:41:27;6.68;;;3.95;;
38465;SDS011;24244;51.950;5.902;2023-07-29T00:43:55;5.25;;;2.70;;
38465;SDS011;24244;51.950;5.902;2023-07-29T00:46:22;5.95;;;3.35;;
38465;SDS011;24244;51.950;5.902;2023-07-29T00:48:50;5.90;;;3.50;;
38465;SDS011;24244;51.950;5.902;2023-07-29T00:51:17;5.75;;;3.70;;
38465;SDS011;24244;51.950;5.902;2023-07-29T00:53:44;7.10;;;4.47;;
38465;SDS011;24244;51.950;5.902;2023-07-29T00:56:11;6.53;;;3.92;;
38465;SDS011;24244;51.950;5.902;2023-07-29T00:58:38;6.78;;;4.10;;
38465;SDS011;24244;51.950;5.902;2023-07-29T01:01:06;5.45;;;3.35;;
38465;SDS011;24244;51.950;5.902;2023-07-29T01:03:34;8.68;;;4.43;;
38465;SDS011;24244;51.950;5.902;2023-07-29T01:06:05;6.15;;;3.92;;
38465;SDS011;24244;51.950;5.902;2023-07-29T01:08:42;4.93;;;3.13;;
38465;SDS011;24244;51.950;5.902;2023-07-29T01:11:21;6.20;;;3.67;;
38465;SDS011;24244;51.950;5.902;2023-07-29T01:14:00;6.20;;;3.28;;
38465;SDS011;24244;51.950;5.902;2023-07-29T01:16:36;6.65;;;3.67;;
38465;SDS011;24244;51.950;5.902;2023-07-29T01:19:08;6.82;;;3.90;;
38465;SDS011;24244;51.950;5.902;2023-07-29T01:21:49;7.97;;;3.58;;
38465;SDS011;24244;51.950;5.902;2023-07-29T01:24:18;6.63;;;3.22;;
38465;SDS011;24244;51.950;5.902;2023-07-29T01:26:45;5.65;;;3.50;;
38465;SDS011;24244;51.950;5.902;2023-07-29T01:29:12;6.15;;;3.38;;
38465;SDS011;24244;51.950;5.902;2023-07-29T01:31:40;6.70;;;3.60;;
38465;SDS011;24244;51.950;5.902;2023-07-29T01:34:13;7.75;;;3.90;;
38465;SDS011;24244;51.950;5.902;2023-07-29T01:36:49;7.43;;;4.53;;
38465;SDS011;24244;51.950;5.902;2023-07-29T01:39:20;5.97;;;4.05;;
38465;SDS011;24244;51.950;5.902;2023-07-29T01:41:48;6.85;;;3.72;;
38465;SDS011;24244;51.950;5.902;2023-07-29T01:44:17;6.68;;;3.92;;
38465;SDS011;24244;51.950;5.902;2023-07-29T01:46:45;7.55;;;4.57;;
38465;SDS011;24244;51.950;5.902;2023-07-29T01:49:12;7.70;;;4.00;;
38465;SDS011;24244;51.950;5.902;2023-07-29T01:51:39;6.72;;;4.32;;
38465;SDS011;24244;51.950;5.902;2023-07-29T01:54:06;6.32;;;4.00;;
38465;SDS011;24244;51.950;5.902;2023-07-29T01:56:34;6.75;;;4.20;;
38465;SDS011;24244;51.950;5.902;2023-07-29T01:59:01;7.25;;;4.10;;
38465;SDS011;24244;51.950;5.902;2023-07-29T02:01:29;9.80;;;4.72;;
38465;SDS011;24244;51.950;5.902;2023-07-29T02:03:57;5.70;;;3.47;;
38465;SDS011;24244;51.950;5.902;2023-07-29T02:06:24;6.25;;;3.95;;
38465;SDS011;24244;51.950;5.902;2023-07-29T02:08:50;8.40;;;4.50;;
38465;SDS011;24244;51.950;5.902;2023-07-29T02:11:19;6.88;;;4.10;;
38465;SDS011;24244;51.950;5.902;2023-07-29T02:13:54;7.15;;;4.22;;
38465;SDS011;24244;51.950;5.902;2023-07-29T02:16:22;6.60;;;4.13;;
38465;SDS011;24244;51.950;5.902;2023-07-29T02:18:49;7.13;;;4.20;;
38465;SDS011;24244;51.950;5.902;2023-07-29T02:21:20;6.78;;;3.85;;
38465;SDS011;24244;51.950;5.902;2023-07-29T02:23:47;6.53;;;3.90;;
38465;SDS011;24244;51.950;5.902;2023-07-29T02:26:14;7.05;;;3.78;;
38465;SDS011;24244;51.950;5.902;2023-07-29T02:28:40;7.40;;;4.28;;
38465;SDS011;24244;51.950;5.902;2023-07-29T02:31:14;6.45;;;4.00;;
38465;SDS011;24244;51.950;5.902;2023-07-29T02:33:42;7.25;;;4.05;;
38465;SDS011;24244;51.950;5.902;2023-07-29T02:36:10;6.25;;;3.58;;
38465;SDS011;24244;51.950;5.902;2023-07-29T02:38:38;6.30;;;4.13;;
38465;SDS011;24244;51.950;5.902;2023-07-29T02:41:05;6.72;;;3.90;;
38465;SDS011;24244;51.950;5.902;2023-07-29T02:43:32;7.03;;;4.00;;
38465;SDS011;24244;51.950;5.902;2023-07-29T02:45:59;7.60;;;4.55;;
38465;SDS011;24244;51.950;5.902;2023-07-29T02:48:27;5.93;;;3.65;;
38465;SDS011;24244;51.950;5.902;2023-07-29T02:50:54;7.35;;;4.35;;
38465;SDS011;24244;51.950;5.902;2023-07-29T02:53:21;6.60;;;3.92;;
38465;SDS011;24244;51.950;5.902;2023-07-29T02:55:48;7.43;;;3.95;;
38465;SDS011;24244;51.950;5.902;2023-07-29T02:58:15;6.18;;;3.22;;
38465;SDS011;24244;51.950;5.902;2023-07-29T03:00:42;6.65;;;4.10;;
38465;SDS011;24244;51.950;5.902;2023-07-29T03:03:09;5.80;;;3.45;;
38465;SDS011;24244;51.950;5.902;2023-07-29T03:05:38;6.65;;;3.42;;
38465;SDS011;24244;51.950;5.902;2023-07-29T03:08:05;5.85;;;3.13;;
38465;SDS011;24244;51.950;5.902;2023-07-29T03:10:34;5.90;;;3.50;;
38465;SDS011;24244;51.950;5.902;2023-07-29T03:13:01;6.40;;;3.28;;
38465;SDS011;24244;51.950;5.902;2023-07-29T03:15:28;6.30;;;3.63;;
38465;SDS011;24244;51.950;5.902;2023-07-29T03:17:55;6.60;;;3.13;;
38465;SDS011;24244;51.950;5.902;2023-07-29T03:20:22;6.10;;;3.42;;
38465;SDS011;24244;51.950;5.902;2023-07-29T03:22:50;5.40;;;2.72;;
38465;SDS011;24244;51.950;5.902;2023-07-29T03:25:16;5.80;;;2.80;;
38465;SDS011;24244;51.950;5.902;2023-07-29T03:27:43;6.60;;;2.80;;
38465;SDS011;24244;51.950;5.902;2023-07-29T03:30:10;5.50;;;2.50;;
38465;SDS011;24244;51.950;5.902;2023-07-29T03:32:39;3.70;;;2.25;;
38465;SDS011;24244;51.950;5.902;2023-07-29T03:35:11;4.25;;;2.22;;
38465;SDS011;24244;51.950;5.902;2023-07-29T03:37:38;3.75;;;1.83;;
38465;SDS011;24244;51.950;5.902;2023-07-29T03:40:07;4.18;;;1.95;;
38465;SDS011;24244;51.950;5.902;2023-07-29T03:42:37;3.97;;;1.80;;
38465;SDS011;24244;51.950;5.902;2023-07-29T03:45:04;3.95;;;1.95;;
38465;SDS011;24244;51.950;5.902;2023-07-29T03:47:32;3.75;;;2.20;;
38465;SDS011;24244;51.950;5.902;2023-07-29T03:49:59;3.78;;;1.80;;
38465;SDS011;24244;51.950;5.902;2023-07-29T03:52:26;4.38;;;2.03;;
38465;SDS011;24244;51.950;5.902;2023-07-29T03:54:53;3.38;;;1.70;;
38465;SDS011;24244;51.950;5.902;2023-07-29T03:57:21;4.63;;;2.08;;
38465;SDS011;24244;51.950;5.902;2023-07-29T03:59:51;3.63;;;1.70;;
38465;SDS011;24244;51.950;5.902;2023-07-29T04:02:17;3.15;;;1.65;;
38465;SDS011;24244;51.950;5.902;2023-07-29T04:04:44;3.63;;;1.60;;
38465;SDS011;24244;51.950;5.902;2023-07-29T04:07:14;3.72;;;1.75;;
38465;SDS011;24244;51.950;5.902;2023-07-29T04:09:41;3.42;;;1.60;;
38465;SDS011;24244;51.950;5.902;2023-07-29T04:12:09;6.00;;;2.05;;
38465;SDS011;24244;51.950;5.902;2023-07-29T04:14:37;4.22;;;1.70;;
38465;SDS011;24244;51.950;5.902;2023-07-29T04:17:05;4.32;;;1.50;;
38465;SDS011;24244;51.950;5.902;2023-07-29T04:19:31;3.20;;;1.75;;
38465;SDS011;24244;51.950;5.902;2023-07-29T04:21:58;3.25;;;1.60;;
38465;SDS011;24244;51.950;5.902;2023-07-29T04:24:25;3.20;;;1.40;;
38465;SDS011;24244;51.950;5.902;2023-07-29T04:26:52;4.18;;;1.40;;
38465;SDS011;24244;51.950;5.902;2023-07-29T04:29:18;3.08;;;1.42;;
38465;SDS011;24244;51.950;5.902;2023-07-29T04:31:46;2.58;;;1.13;;
38465;SDS011;24244;51.950;5.902;2023-07-29T04:34:13;3.20;;;1.15;;
38465;SDS011;24244;51.950;5.902;2023-07-29T04:36:40;2.33;;;0.88;;
38465;SDS011;24244;51.950;5.902;2023-07-29T04:39:07;2.95;;;0.98;;
38465;SDS011;24244;51.950;5.902;2023-07-29T04:41:34;3.10;;;1.40;;
38465;SDS011;24244;51.950;5.902;2023-07-29T04:44:01;2.38;;;0.95;;
38465;SDS011;24244;51.950;5.902;2023-07-29T04:46:28;2.13;;;0.88;;
38465;SDS011;24244;51.950;5.902;2023-07-29T04:48:56;2.28;;;0.90;;
38465;SDS011;24244;51.950;5.902;2023-07-29T04:51:23;2.42;;;1.15;;
38465;SDS011;24244;51.950;5.902;2023-07-29T04:53:50;2.10;;;0.95;;
38465;SDS011;24244;51.950;5.902;2023-07-29T04:56:17;2.85;;;1.02;;
38465;SDS011;24244;51.950;5.902;2023-07-29T04:58:44;2.22;;;1.10;;
38465;SDS011;24244;51.950;5.902;2023-07-29T05:01:11;2.88;;;0.93;;
38465;SDS011;24244;51.950;5.902;2023-07-29T05:03:38;2.83;;;0.88;;
38465;SDS011;24244;51.950;5.902;2023-07-29T05:06:07;4.70;;;0.90;;
38465;SDS011;24244;51.950;5.902;2023-07-29T05:08:34;3.50;;;1.00;;
38465;SDS011;24244;51.950;5.902;2023-07-29T05:11:01;2.55;;;1.00;;
38465;SDS011;24244;51.950;5.902;2023-07-29T05:13:28;2.45;;;1.00;;
38465;SDS011;24244;51.950;5.902;2023-07-29T05:15:55;2.92;;;1.17;;
38465;SDS011;24244;51.950;5.902;2023-07-29T05:18:22;2.38;;;1.02;;
38465;SDS011;24244;51.950;5.902;2023-07-29T05:20:49;2.45;;;1.25;;
38465;SDS011;24244;51.950;5.902;2023-07-29T05:23:23;3.78;;;1.40;;
38465;SDS011;24244;51.950;5.902;2023-07-29T05:25:51;2.85;;;0.88;;
38465;SDS011;24244;51.950;5.902;2023-07-29T05:28:17;2.13;;;0.88;;
38465;SDS011;24244;51.950;5.902;2023-07-29T05:30:44;3.00;;;0.90;;
38465;SDS011;24244;51.950;5.902;2023-07-29T05:33:11;3.25;;;0.93;;
38465;SDS011;24244;51.950;5.902;2023-07-29T05:35:38;2.28;;;1.20;;
38465;SDS011;24244;51.950;5.902;2023-07-29T05:38:05;2.22;;;0.85;;
38465;SDS011;24244;51.950;5.902;2023-07-29T05:40:36;2.75;;;1.20;;
38465;SDS011;24244;51.950;5.902;2023-07-29T05:43:02;2.65;;;1.30;;
38465;SDS011;24244;51.950;5.902;2023-07-29T05:45:29;2.95;;;1.30;;
38465;SDS011;24244;51.950;5.902;2023-07-29T05:47:57;2.00;;;0.90;;
38465;SDS011;24244;51.950;5.902;2023-07-29T05:50:24;4.28;;;1.38;;
38465;SDS011;24244;51.950;5.902;2023-07-29T05:52:50;3.20;;;1.30;;
38465;SDS011;24244;51.950;5.902;2023-07-29T05:55:17;2.60;;;1.40;;
38465;SDS011;24244;51.950;5.902;2023-07-29T05:57:45;3.25;;;1.40;;
38465;SDS011;24244;51.950;5.902;2023-07-29T06:00:12;3.60;;;1.20;;
38465;SDS011;24244;51.950;5.902;2023-07-29T06:02:39;2.97;;;1.40;;
38465;SDS011;24244;51.950;5.902;2023-07-29T06:05:07;2.72;;;1.20;;
38465;SDS011;24244;51.950;5.902;2023-07-29T06:07:34;3.20;;;1.60;;
38465;SDS011;24244;51.950;5.902;2023-07-29T06:10:01;2.72;;;1.33;;
38465;SDS011;24244;51.950;5.902;2023-07-29T06:12:28;3.05;;;1.60;;
38465;SDS011;24244;51.950;5.902;2023-07-29T06:14:56;3.92;;;1.63;;
38465;SDS011;24244;51.950;5.902;2023-07-29T06:17:22;3.05;;;1.52;;
38465;SDS011;24244;51.950;5.902;2023-07-29T06:19:49;4.30;;;1.75;;
38465;SDS011;24244;51.950;5.902;2023-07-29T06:22:16;3.22;;;1.65;;
38465;SDS011;24244;51.950;5.902;2023-07-29T06:24:42;4.18;;;2.00;;
38465;SDS011;24244;51.950;5.902;2023-07-29T06:27:09;3.63;;;1.98;;
38465;SDS011;24244;51.950;5.902;2023-07-29T06:29:36;3.33;;;1.67;;
38465;SDS011;24244;51.950;5.902;2023-07-29T06:32:05;3.58;;;1.70;;
38465;SDS011;24244;51.950;5.902;2023-07-29T06:34:32;4.10;;;1.80;;
38465;SDS011;24244;51.950;5.902;2023-07-29T06:36:59;3.15;;;1.60;;
38465;SDS011;24244;51.950;5.902;2023-07-29T06:39:26;3.08;;;1.60;;
38465;SDS011;24244;51.950;5.902;2023-07-29T06:41:52;3.50;;;2.00;;
38465;SDS011;24244;51.950;5.902;2023-07-29T06:44:19;5.95;;;1.98;;
38465;SDS011;24244;51.950;5.902;2023-07-29T06:46:46;4.60;;;1.75;;
38465;SDS011;24244;51.950;5.902;2023-07-29T06:49:15;3.50;;;1.83;;
38465;SDS011;24244;51.950;5.902;2023-07-29T06:51:41;3.55;;;1.35;;
38465;SDS011;24244;51.950;5.902;2023-07-29T06:54:11;4.10;;;1.90;;
38465;SDS011;24244;51.950;5.902;2023-07-29T06:56:37;4.00;;;1.50;;
38465;SDS011;24244;51.950;5.902;2023-07-29T06:59:04;4.47;;;2.10;;
38465;SDS011;24244;51.950;5.902;2023-07-29T07:01:31;3.25;;;1.88;;
38465;SDS011;24244;51.950;5.902;2023-07-29T07:03:58;5.18;;;1.95;;
38465;SDS011;24244;51.950;5.902;2023-07-29T07:06:26;3.83;;;1.85;;
38465;SDS011;24244;51.950;5.902;2023-07-29T07:08:53;4.60;;;2.03;;
38465;SDS011;24244;51.950;5.902;2023-07-29T07:11:20;3.65;;;1.52;;
38465;SDS011;24244;51.950;5.902;2023-07-29T07:13:47;4.25;;;1.98;;
38465;SDS011;24244;51.950;5.902;2023-07-29T07:16:13;3.38;;;1.90;;
38465;SDS011;24244;51.950;5.902;2023-07-29T07:18:40;4.13;;;1.70;;
38465;SDS011;24244;51.950;5.902;2023-07-29T07:21:07;4.68;;;2.10;;
38465;SDS011;24244;51.950;5.902;2023-07-29T07:23:36;5.18;;;2.70;;
38465;SDS011;24244;51.950;5.902;2023-07-29T07:26:02;4.93;;;2.90;;
38465;SDS011;24244;51.950;5.902;2023-07-29T07:28:29;4.22;;;2.50;;
38465;SDS011;24244;51.950;5.902;2023-07-29T07:31:08;4.07;;;2.38;;
38465;SDS011;24244;51.950;5.902;2023-07-29T07:33:35;4.68;;;2.90;;
38465;SDS011;24244;51.950;5.902;2023-07-29T07:36:02;5.05;;;2.55;;
38465;SDS011;24244;51.950;5.902;2023-07-29T07:38:29;5.20;;;2.67;;
38465;SDS011;24244;51.950;5.902;2023-07-29T07:40:58;4.15;;;2.75;;
38465;SDS011;24244;51.950;5.902;2023-07-29T07:43:25;4.57;;;2.38;;
38465;SDS011;24244;51.950;5.902;2023-07-29T07:45:57;3.92;;;1.98;;
38465;SDS011;24244;51.950;5.902;2023-07-29T07:48:25;3.97;;;2.53;;
38465;SDS011;24244;51.950;5.902;2023-07-29T07:50:51;6.03;;;2.83;;
38465;SDS011;24244;51.950;5.902;2023-07-29T07:53:18;4.70;;;1.85;;
38465;SDS011;24244;51.950;5.902;2023-07-29T07:55:46;5.00;;;3.08;;
38465;SDS011;24244;51.950;5.902;2023-07-29T07:58:14;4.50;;;2.97;;
38465;SDS011;24244;51.950;5.902;2023-07-29T08:00:41;4.63;;;2.70;;
38465;SDS011;24244;51.950;5.902;2023-07-29T08:03:08;4.10;;;2.40;;
38465;SDS011;24244;51.950;5.902;2023-07-29T08:05:35;3.67;;;2.50;;
38465;SDS011;24244;51.950;5.902;2023-07-29T08:08:02;4.90;;;2.47;;
38465;SDS011;24244;51.950;5.902;2023-07-29T08:10:29;4.05;;;2.35;;
38465;SDS011;24244;51.950;5.902;2023-07-29T08:12:56;4.20;;;2.33;;
38465;SDS011;24244;51.950;5.902;2023-07-29T08:15:24;4.72;;;2.03;;
38465;SDS011;24244;51.950;5.902;2023-07-29T08:17:51;5.43;;;2.17;;
38465;SDS011;24244;51.950;5.902;2023-07-29T08:20:18;4.43;;;1.92;;
38465;SDS011;24244;51.950;5.902;2023-07-29T08:22:45;3.65;;;2.47;;
38465;SDS011;24244;51.950;5.902;2023-07-29T08:25:12;3.25;;;2.20;;
38465;SDS011;24244;51.950;5.902;2023-07-29T08:27:39;4.28;;;2.05;;
38465;SDS011;24244;51.950;5.902;2023-07-29T08:30:06;3.17;;;1.92;;
38465;SDS011;24244;51.950;5.902;2023-07-29T08:32:37;3.00;;;1.75;;
38465;SDS011;24244;51.950;5.902;2023-07-29T08:35:04;2.83;;;1.60;;
38465;SDS011;24244;51.950;5.902;2023-07-29T08:37:31;2.42;;;1.42;;
38465;SDS011;24244;51.950;5.902;2023-07-29T08:39:58;2.75;;;1.73;;
38465;SDS011;24244;51.950;5.902;2023-07-29T08:42:27;3.25;;;1.60;;
38465;SDS011;24244;51.950;5.902;2023-07-29T08:44:58;2.58;;;1.50;;
38465;SDS011;24244;51.950;5.902;2023-07-29T08:47:32;2.28;;;1.30;;
38465;SDS011;24244;51.950;5.902;2023-07-29T08:50:00;3.00;;;1.63;;
38465;SDS011;24244;51.950;5.902;2023-07-29T08:52:29;2.47;;;1.48;;
38465;SDS011;24244;51.950;5.902;2023-07-29T08:54:58;2.13;;;1.20;;
38465;SDS011;24244;51.950;5.902;2023-07-29T08:57:25;2.25;;;1.50;;
38465;SDS011;24244;51.950;5.902;2023-07-29T08:59:53;2.47;;;1.60;;
38465;SDS011;24244;51.950;5.902;2023-07-29T09:02:22;4.43;;;2.10;;
38465;SDS011;24244;51.950;5.902;2023-07-29T09:04:49;2.72;;;1.83;;
38465;SDS011;24244;51.950;5.902;2023-07-29T09:07:17;2.70;;;1.70;;
38465;SDS011;24244;51.950;5.902;2023-07-29T09:09:45;3.08;;;1.70;;
38465;SDS011;24244;51.950;5.902;2023-07-29T09:12:12;3.63;;;1.95;;
38465;SDS011;24244;51.950;5.902;2023-07-29T09:14:38;3.03;;;1.70;;
38465;SDS011;24244;51.950;5.902;2023-07-29T09:17:06;2.15;;;1.40;;
38465;SDS011;24244;51.950;5.902;2023-07-29T09:19:34;1.80;;;1.08;;
38465;SDS011;24244;51.950;5.902;2023-07-29T09:22:01;2.15;;;1.35;;
38465;SDS011;24244;51.950;5.902;2023-07-29T09:24:30;2.80;;;1.55;;
38465;SDS011;24244;51.950;5.902;2023-07-29T09:26:58;3.25;;;2.00;;
38465;SDS011;24244;51.950;5.902;2023-07-29T09:29:27;2.25;;;1.40;;
38465;SDS011;24244;51.950;5.902;2023-07-29T09:31:59;2.78;;;1.40;;
38465;SDS011;24244;51.950;5.902;2023-07-29T09:34:44;2.58;;;1.63;;
38465;SDS011;24244;51.950;5.902;2023-07-29T09:37:14;2.13;;;1.13;;
38465;SDS011;24244;51.950;5.902;2023-07-29T09:39:45;1.95;;;1.10;;
38465;SDS011;24244;51.950;5.902;2023-07-29T09:42:16;2.80;;;1.23;;
38465;SDS011;24244;51.950;5.902;2023-07-29T09:44:44;2.55;;;1.15;;
38465;SDS011;24244;51.950;5.902;2023-07-29T09:47:18;1.73;;;0.88;;
38465;SDS011;24244;51.950;5.902;2023-07-29T09:49:46;1.90;;;1.08;;
38465;SDS011;24244;51.950;5.902;2023-07-29T09:52:13;2.00;;;1.27;;
38465;SDS011;24244;51.950;5.902;2023-07-29T09:54:42;2.00;;;1.20;;
38465;SDS011;24244;51.950;5.902;2023-07-29T09:57:10;2.25;;;1.10;;
38465;SDS011;24244;51.950;5.902;2023-07-29T09:59:37;1.80;;;1.10;;
38465;SDS011;24244;51.950;5.902;2023-07-29T10:02:04;2.30;;;1.00;;
38465;SDS011;24244;51.950;5.902;2023-07-29T10:04:35;2.67;;;1.33;;
38465;SDS011;24244;51.950;5.902;2023-07-29T10:07:02;1.90;;;1.00;;
38465;SDS011;24244;51.950;5.902;2023-07-29T10:09:29;2.50;;;1.13;;
38465;SDS011;24244;51.950;5.902;2023-07-29T10:11:57;2.80;;;1.40;;
38465;SDS011;24244;51.950;5.902;2023-07-29T10:14:27;2.35;;;1.42;;
38465;SDS011;24244;51.950;5.902;2023-07-29T10:16:55;3.45;;;1.48;;
38465;SDS011;24244;51.950;5.902;2023-07-29T10:19:23;2.33;;;1.23;;
38465;SDS011;24244;51.950;5.902;2023-07-29T10:21:52;2.50;;;1.20;;
38465;SDS011;24244;51.950;5.902;2023-07-29T10:24:22;1.42;;;0.80;;
38465;SDS011;24244;51.950;5.902;2023-07-29T10:26:57;1.90;;;1.00;;
38465;SDS011;24244;51.950;5.902;2023-07-29T10:29:28;2.00;;;0.80;;
38465;SDS011;24244;51.950;5.902;2023-07-29T10:32:01;2.63;;;1.13;;
38465;SDS011;24244;51.950;5.902;2023-07-29T10:34:30;2.28;;;1.13;;
38465;SDS011;24244;51.950;5.902;2023-07-29T10:36:58;2.33;;;0.90;;
38465;SDS011;24244;51.950;5.902;2023-07-29T10:39:26;3.47;;;1.50;;
38465;SDS011;24244;51.950;5.902;2023-07-29T10:41:56;2.40;;;1.48;;
38465;SDS011;24244;51.950;5.902;2023-07-29T10:47:19;2.72;;;1.67;;
38465;SDS011;24244;51.950;5.902;2023-07-29T10:49:50;2.67;;;1.60;;
38465;SDS011;24244;51.950;5.902;2023-07-29T10:52:31;3.22;;;1.70;;
38465;SDS011;24244;51.950;5.902;2023-07-29T10:55:22;3.60;;;1.67;;
38465;SDS011;24244;51.950;5.902;2023-07-29T10:57:54;1.90;;;1.20;;
38465;SDS011;24244;51.950;5.902;2023-07-29T11:00:32;2.35;;;1.35;;
38465;SDS011;24244;51.950;5.902;2023-07-29T11:03:00;2.97;;;1.60;;
38465;SDS011;24244;51.950;5.902;2023-07-29T11:05:41;2.95;;;1.58;;
38465;SDS011;24244;51.950;5.902;2023-07-29T11:08:20;2.92;;;1.38;;
38465;SDS011;24244;51.950;5.902;2023-07-29T11:10:59;2.22;;;1.40;;
38465;SDS011;24244;51.950;5.902;2023-07-29T11:13:31;2.63;;;1.60;;
38465;SDS011;24244;51.950;5.902;2023-07-29T11:16:01;2.88;;;1.27;;
38465;SDS011;24244;51.950;5.902;2023-07-29T11:18:29;1.67;;;1.10;;
38465;SDS011;24244;51.950;5.902;2023-07-29T11:20:58;3.17;;;1.10;;
38465;SDS011;24244;51.950;5.902;2023-07-29T11:23:32;1.65;;;0.90;;
38465;SDS011;24244;51.950;5.902;2023-07-29T11:26:00;2.13;;;1.08;;
38465;SDS011;24244;51.950;5.902;2023-07-29T11:28:28;2.47;;;1.30;;
38465;SDS011;24244;51.950;5.902;2023-07-29T11:30:56;3.60;;;1.90;;
38465;SDS011;24244;51.950;5.902;2023-07-29T11:33:26;50.38;;;13.98;;
38465;SDS011;24244;51.950;5.902;2023-07-29T11:35:55;8.93;;;2.55;;
38465;SDS011;24244;51.950;5.902;2023-07-29T11:38:23;10.88;;;2.70;;
38465;SDS011;24244;51.950;5.902;2023-07-29T11:40:54;5.22;;;2.13;;
38465;SDS011;24244;51.950;5.902;2023-07-29T11:43:22;4.75;;;1.40;;
38465;SDS011;24244;51.950;5.902;2023-07-29T11:45:50;3.33;;;1.35;;
38465;SDS011;24244;51.950;5.902;2023-07-29T11:48:18;2.28;;;1.20;;
38465;SDS011;24244;51.950;5.902;2023-07-29T11:50:46;1.50;;;0.80;;
38465;SDS011;24244;51.950;5.902;2023-07-29T11:53:14;1.73;;;0.80;;
38465;SDS011;24244;51.950;5.902;2023-07-29T11:55:43;1.83;;;0.90;;
38465;SDS011;24244;51.950;5.902;2023-07-29T11:58:09;3.50;;;1.25;;
38465;SDS011;24244;51.950;5.902;2023-07-29T12:00:37;2.72;;;1.13;;
38465;SDS011;24244;51.950;5.902;2023-07-29T12:03:04;1.85;;;0.93;;
38465;SDS011;24244;51.950;5.902;2023-07-29T12:05:31;2.13;;;0.65;;
38465;SDS011;24244;51.950;5.902;2023-07-29T12:08:00;1.45;;;0.65;;
38465;SDS011;24244;51.950;5.902;2023-07-29T12:10:27;0.82;;;0.30;;
38465;SDS011;24244;51.950;5.902;2023-07-29T12:12:54;1.10;;;0.52;;
38465;SDS011;24244;51.950;5.902;2023-07-29T12:15:24;1.63;;;0.68;;
38465;SDS011;24244;51.950;5.902;2023-07-29T12:17:52;1.42;;;0.70;;
38465;SDS011;24244;51.950;5.902;2023-07-29T12:20:23;1.50;;;0.60;;
38465;SDS011;24244;51.950;5.902;2023-07-29T12:22:54;2.22;;;0.60;;
38465;SDS011;24244;51.950;5.902;2023-07-29T12:25:23;3.70;;;0.60;;
38465;SDS011;24244;51.950;5.902;2023-07-29T12:27:50;1.60;;;0.40;;
38465;SDS011;24244;51.950;5.902;2023-07-29T12:30:19;1.73;;;0.57;;
38465;SDS011;24244;51.950;5.902;2023-07-29T12:32:47;2.03;;;0.30;;
38465;SDS011;24244;51.950;5.902;2023-07-29T12:35:14;2.00;;;0.50;;
38465;SDS011;24244;51.950;5.902;2023-07-29T12:37:41;2.83;;;0.70;;
38465;SDS011;24244;51.950;5.902;2023-07-29T12:40:20;1.98;;;0.52;;
38465;SDS011;24244;51.950;5.902;2023-07-29T12:42:49;1.77;;;0.68;;
38465;SDS011;24244;51.950;5.902;2023-07-29T12:45:20;1.40;;;0.60;;
38465;SDS011;24244;51.950;5.902;2023-07-29T12:47:49;1.38;;;0.60;;
38465;SDS011;24244;51.950;5.902;2023-07-29T12:50:16;2.83;;;0.73;;
38465;SDS011;24244;51.950;5.902;2023-07-29T12:52:44;1.23;;;0.52;;
38465;SDS011;24244;51.950;5.902;2023-07-29T12:55:11;2.53;;;0.70;;
38465;SDS011;24244;51.950;5.902;2023-07-29T12:57:42;2.53;;;0.80;;
38465;SDS011;24244;51.950;5.902;2023-07-29T13:00:10;1.10;;;0.40;;
38465;SDS011;24244;51.950;5.902;2023-07-29T13:02:40;1.33;;;0.47;;
38465;SDS011;24244;51.950;5.902;2023-07-29T13:05:09;1.60;;;0.75;;
38465;SDS011;24244;51.950;5.902;2023-07-29T13:07:38;1.63;;;0.93;;
38465;SDS011;24244;51.950;5.902;2023-07-29T13:10:06;3.22;;;0.80;;
38465;SDS011;24244;51.950;5.902;2023-07-29T13:12:33;1.38;;;0.73;;
38465;SDS011;24244;51.950;5.902;2023-07-29T13:15:01;1.88;;;0.90;;
38465;SDS011;24244;51.950;5.902;2023-07-29T13:17:28;2.05;;;1.10;;
38465;SDS011;24244;51.950;5.902;2023-07-29T13:19:55;2.30;;;1.20;;
38465;SDS011;24244;51.950;5.902;2023-07-29T13:22:22;2.60;;;1.40;;
38465;SDS011;24244;51.950;5.902;2023-07-29T13:24:49;2.50;;;1.10;;
38465;SDS011;24244;51.950;5.902;2023-07-29T13:27:16;2.38;;;1.23;;
38465;SDS011;24244;51.950;5.902;2023-07-29T13:29:43;2.55;;;1.38;;
38465;SDS011;24244;51.950;5.902;2023-07-29T13:32:14;2.78;;;1.25;;
38465;SDS011;24244;51.950;5.902;2023-07-29T13:34:42;2.53;;;1.35;;
38465;SDS011;24244;51.950;5.902;2023-07-29T13:37:09;2.63;;;1.25;;
38465;SDS011;24244;51.950;5.902;2023-07-29T13:39:36;5.18;;;1.88;;
38465;SDS011;24244;51.950;5.902;2023-07-29T13:42:03;3.00;;;1.90;;
38465;SDS011;24244;51.950;5.902;2023-07-29T13:44:33;3.20;;;1.90;;
38465;SDS011;24244;51.950;5.902;2023-07-29T13:47:00;3.58;;;1.80;;
38465;SDS011;24244;51.950;5.902;2023-07-29T13:49:28;3.47;;;1.95;;
38465;SDS011;24244;51.950;5.902;2023-07-29T13:51:55;3.45;;;1.80;;
38465;SDS011;24244;51.950;5.902;2023-07-29T13:54:22;2.60;;;1.52;;
38465;SDS011;24244;51.950;5.902;2023-07-29T13:56:49;1.95;;;1.10;;
38465;SDS011;24244;51.950;5.902;2023-07-29T13:59:15;2.25;;;1.33;;
38465;SDS011;24244;51.950;5.902;2023-07-29T14:01:42;1.88;;;1.20;;
38465;SDS011;24244;51.950;5.902;2023-07-29T14:04:09;2.22;;;1.17;;
38465;SDS011;24244;51.950;5.902;2023-07-29T14:06:37;2.00;;;1.10;;
38465;SDS011;24244;51.950;5.902;2023-07-29T14:09:07;2.40;;;1.40;;
38465;SDS011;24244;51.950;5.902;2023-07-29T14:11:34;2.30;;;1.40;;
38465;SDS011;24244;51.950;5.902;2023-07-29T14:14:01;3.08;;;1.30;;
38465;SDS011;24244;51.950;5.902;2023-07-29T14:16:28;2.08;;;1.20;;
38465;SDS011;24244;51.950;5.902;2023-07-29T14:18:55;2.53;;;1.33;;
38465;SDS011;24244;51.950;5.902;2023-07-29T14:21:22;1.92;;;1.20;;
38465;SDS011;24244;51.950;5.902;2023-07-29T14:23:50;1.70;;;1.20;;
38465;SDS011;24244;51.950;5.902;2023-07-29T14:26:18;2.38;;;1.10;;
38465;SDS011;24244;51.950;5.902;2023-07-29T14:28:45;2.10;;;1.10;;
38465;SDS011;24244;51.950;5.902;2023-07-29T14:31:11;1.83;;;0.90;;
38465;SDS011;24244;51.950;5.902;2023-07-29T14:33:38;3.08;;;1.55;;
38465;SDS011;24244;51.950;5.902;2023-07-29T14:36:05;2.20;;;1.20;;
38465;SDS011;24244;51.950;5.902;2023-07-29T14:38:34;2.00;;;1.17;;
38465;SDS011;24244;51.950;5.902;2023-07-29T14:41:02;2.92;;;1.13;;
38465;SDS011;24244;51.950;5.902;2023-07-29T14:43:30;1.90;;;1.13;;
38465;SDS011;24244;51.950;5.902;2023-07-29T14:45:57;1.95;;;1.25;;
38465;SDS011;24244;51.950;5.902;2023-07-29T14:48:24;3.08;;;1.58;;
38465;SDS011;24244;51.950;5.902;2023-07-29T14:50:50;3.15;;;1.35;;
38465;SDS011;24244;51.950;5.902;2023-07-29T14:53:17;2.88;;;1.23;;
38465;SDS011;24244;51.950;5.902;2023-07-29T14:55:45;2.42;;;1.58;;
38465;SDS011;24244;51.950;5.902;2023-07-29T14:58:13;3.05;;;1.27;;